createdAt,value
2018-08-03T00:01:25.488Z,99519.07
2018-08-03T00:03:54.043Z,99510.84
2018-08-03T00:06:22.500Z,99508.27
2018-08-03T00:08:51.365Z,99506.05
2018-08-03T00:11:19.846Z,99508.80
2018-08-03T00:13:49.107Z,99503.93
2018-08-03T00:16:17.650Z,99497.84
2018-08-03T00:18:46.257Z,99503.93
2018-08-03T00:21:15.167Z,99508.23
2018-08-03T00:23:44.263Z,99502.70
2018-08-03T00:26:14.364Z,99510.80
2018-08-03T00:28:43.273Z,99508.28
2018-08-03T00:31:11.875Z,99514.86
2018-08-03T00:33:41.188Z,99510.09
2018-08-03T00:36:10.543Z,99518.58
2018-08-03T00:38:39.453Z,99506.16
2018-08-03T00:41:08.491Z,99505.73
2018-08-03T00:43:37.081Z,99506.09
2018-08-03T00:46:05.764Z,99502.12
2018-08-03T00:48:34.656Z,99506.04
2018-08-03T00:51:03.683Z,99512.47
2018-08-03T00:53:32.452Z,99500.38
2018-08-03T00:56:01.156Z,99504.83
2018-08-03T00:58:29.952Z,99502.61
2018-08-03T01:00:58.714Z,99500.84
2018-08-03T01:03:27.403Z,99508.22
2018-08-03T01:05:56.041Z,99497.31
2018-08-03T01:08:24.997Z,99499.11
2018-08-03T01:10:54.910Z,99506.94
2018-08-03T01:13:24.996Z,99510.12
2018-08-03T01:15:54.435Z,99506.89
2018-08-03T01:18:23.125Z,99510.58
2018-08-03T01:20:52.259Z,99508.32
2018-08-03T01:23:21.890Z,99505.53
2018-08-03T01:25:50.632Z,99504.45
2018-08-03T01:28:19.913Z,99500.69
2018-08-03T01:30:48.711Z,99503.97
2018-08-03T01:33:17.792Z,99500.73
2018-08-03T01:35:46.507Z,99501.62
2018-08-03T01:38:15.401Z,99504.00
2018-08-03T01:40:44.643Z,99505.77
2018-08-03T01:43:13.713Z,99507.50
2018-08-03T01:45:42.557Z,99509.70
2018-08-03T01:48:11.552Z,99508.03
2018-08-03T01:50:40.415Z,99511.22
2018-08-03T01:53:09.344Z,99508.82
2018-08-03T01:55:38.087Z,99509.44
2018-08-03T01:58:07.143Z,99508.05
2018-08-03T02:00:36.056Z,99507.64
2018-08-03T02:03:04.822Z,99504.41
2018-08-03T02:05:33.582Z,99511.84
2018-08-03T02:08:02.851Z,99507.47
2018-08-03T02:10:31.620Z,99517.94
2018-08-03T02:13:00.348Z,99514.65
2018-08-03T02:15:29.031Z,99516.30
2018-08-03T02:17:57.868Z,99518.41
2018-08-03T02:20:26.559Z,99519.80
2018-08-03T02:22:55.502Z,99517.85
2018-08-03T02:25:24.411Z,99524.09
2018-08-03T02:27:54.259Z,99520.51
2018-08-03T02:30:23.150Z,99517.85
2018-08-03T02:32:51.817Z,99527.14
2018-08-03T02:35:20.363Z,99530.89
2018-08-03T02:37:49.924Z,99534.16
2018-08-03T02:40:19.731Z,99526.40
2018-08-03T02:42:48.485Z,99518.55
2018-08-03T02:45:17.552Z,99522.49
2018-08-03T02:47:47.580Z,99522.88
2018-08-03T02:50:16.209Z,99520.16
2018-08-03T02:52:45.020Z,99518.52
2018-08-03T02:55:13.974Z,99528.86
2018-08-03T02:57:42.906Z,99529.09
2018-08-03T03:00:12.088Z,99532.38
2018-08-03T03:02:43.672Z,99527.72
2018-08-03T03:05:12.376Z,99524.30
2018-08-03T03:07:42.931Z,99519.23
2018-08-03T03:10:11.355Z,99523.07
2018-08-03T03:12:39.863Z,99523.69
2018-08-03T03:15:09.083Z,99522.02
2018-08-03T03:17:37.739Z,99519.16
2018-08-03T03:20:07.768Z,99521.29
2018-08-03T03:22:36.433Z,99524.89
2018-08-03T03:25:12.182Z,99524.57
2018-08-03T03:27:43.870Z,99518.59
2018-08-03T03:30:12.835Z,99524.78
2018-08-03T03:32:42.109Z,99534.84
2018-08-03T03:35:10.734Z,99530.33
2018-08-03T03:37:39.245Z,99526.88
2018-08-03T03:40:07.759Z,99529.10
2018-08-03T03:42:36.508Z,99529.36
2018-08-03T03:45:05.348Z,99521.94
2018-08-03T03:47:34.651Z,99529.02
2018-08-03T03:50:07.021Z,99527.25
2018-08-03T03:52:36.348Z,99522.08
2018-08-03T03:55:12.336Z,99520.44
2018-08-03T03:57:45.086Z,99527.25
2018-08-03T04:00:16.386Z,99526.00
2018-08-03T04:02:45.118Z,99522.64
2018-08-03T04:05:15.253Z,99522.25
2018-08-03T04:07:43.973Z,99522.10
2018-08-03T04:10:14.726Z,99527.02
2018-08-03T04:12:43.653Z,99532.02
2018-08-03T04:15:12.458Z,99528.55
2018-08-03T04:17:45.121Z,99535.34
2018-08-03T04:20:16.516Z,99534.84
2018-08-03T04:22:45.129Z,99535.05
2018-08-03T04:25:14.561Z,99538.36
2018-08-03T04:27:43.092Z,99542.52
2018-08-03T04:30:11.811Z,99538.77
2018-08-03T04:32:40.619Z,99542.19
2018-08-03T04:35:09.184Z,99529.19
2018-08-03T04:37:38.337Z,99535.47
2018-08-03T04:40:06.979Z,99531.64
2018-08-03T04:42:36.274Z,99535.69
2018-08-03T04:45:05.276Z,99531.18
2018-08-03T04:47:33.825Z,99530.39
2018-08-03T04:50:03.573Z,99533.45
2018-08-03T04:52:32.135Z,99533.64
2018-08-03T04:55:00.668Z,99541.89
2018-08-03T04:57:29.256Z,99539.67
2018-08-03T04:59:57.829Z,99543.77
2018-08-03T05:02:26.733Z,99544.53
2018-08-03T05:04:55.319Z,99545.63
2018-08-03T05:07:23.879Z,99554.51
2018-08-03T05:09:52.659Z,99549.23
2018-08-03T05:12:22.508Z,99550.36
2018-08-03T05:14:52.376Z,99556.35
2018-08-03T05:17:21.058Z,99551.73
2018-08-03T05:19:53.788Z,99555.95
2018-08-03T05:22:23.039Z,99554.94
2018-08-03T05:24:51.869Z,99556.84
2018-08-03T05:27:20.392Z,99560.74
2018-08-03T05:29:50.228Z,99559.89
2018-08-03T05:32:19.211Z,99557.23
2018-08-03T05:34:47.793Z,99558.81
2018-08-03T05:37:16.351Z,99553.15
2018-08-03T05:39:45.381Z,99553.45
2018-08-03T05:42:15.486Z,99559.94
2018-08-03T05:44:44.290Z,99560.42
2018-08-03T05:47:14.615Z,99552.50
2018-08-03T05:49:44.270Z,99557.14
2018-08-03T05:52:15.687Z,99548.73
2018-08-03T05:54:44.364Z,99551.48
2018-08-03T05:57:15.377Z,99559.52
2018-08-03T05:59:45.181Z,99561.42
2018-08-03T06:02:15.132Z,99556.17
2018-08-03T06:04:44.728Z,99550.86
2018-08-03T06:07:13.219Z,99553.42
2018-08-03T06:09:41.784Z,99547.67
2018-08-03T06:12:11.335Z,99556.10
2018-08-03T06:14:40.835Z,99553.50
2018-08-03T06:17:10.601Z,99550.33
2018-08-03T06:19:40.320Z,99552.29
2018-08-03T06:22:09.131Z,99556.86
2018-08-03T06:24:37.862Z,99556.02
2018-08-03T06:27:07.536Z,99562.12
2018-08-03T06:29:38.236Z,99559.95
2018-08-03T06:32:10.427Z,99564.95
2018-08-03T06:34:40.426Z,99556.95
2018-08-03T06:37:09.203Z,99561.14
2018-08-03T06:39:39.212Z,99556.05
2018-08-03T06:42:11.448Z,99524.35
2018-08-03T06:44:41.042Z,99557.66
2018-08-03T06:47:10.843Z,99548.12
2018-08-03T06:49:42.647Z,99549.57
2018-08-03T06:52:13.586Z,99554.84
2018-08-03T06:54:44.637Z,99559.69
2018-08-03T06:57:13.619Z,99556.43
2018-08-03T06:59:43.136Z,99553.43
2018-08-03T07:02:13.979Z,99558.06
2018-08-03T07:04:44.391Z,99552.69
2018-08-03T07:07:14.409Z,99551.92
2018-08-03T07:09:45.253Z,99547.68
2018-08-03T07:12:15.927Z,99552.14
2018-08-03T07:14:46.228Z,99551.98
2018-08-03T07:17:15.097Z,99547.53
2018-08-03T07:19:45.009Z,99552.70
2018-08-03T07:22:14.189Z,99547.93
2018-08-03T07:24:43.604Z,99545.64
2018-08-03T07:27:12.935Z,99550.06
2018-08-03T07:29:41.828Z,99550.31
2018-08-03T07:32:13.030Z,99551.83
2018-08-03T07:34:41.798Z,99548.28
2018-08-03T07:37:11.357Z,99547.24
2018-08-03T07:39:39.936Z,99548.12
2018-08-03T07:42:09.404Z,99545.95
2018-08-03T07:44:40.600Z,99542.05
2018-08-03T07:47:11.076Z,99539.23
2018-08-03T07:49:40.911Z,99544.30
2018-08-03T07:52:11.587Z,99534.99
2018-08-03T07:58:09.494Z,99530.45
2018-08-03T08:01:36.104Z,99528.55
2018-08-03T08:04:05.037Z,99525.82
2018-08-03T08:06:33.701Z,99525.09
2018-08-03T08:09:04.778Z,99520.50
2018-08-03T08:11:33.558Z,99523.88
2018-08-03T08:14:02.278Z,99520.87
2018-08-03T08:16:32.316Z,99519.80
2018-08-03T08:19:02.620Z,99528.98
2018-08-03T08:21:31.976Z,99518.09
2018-08-03T08:24:01.223Z,99521.13
2018-08-03T08:26:29.929Z,99521.17
2018-08-03T08:28:58.856Z,99529.22
2018-08-03T08:31:27.524Z,99521.11
2018-08-03T08:33:56.730Z,99519.98
2018-08-03T08:36:25.506Z,99519.85
2018-08-03T08:38:54.441Z,99520.72
2018-08-03T08:41:24.118Z,99514.83
2018-08-03T08:43:54.212Z,99512.29
2018-08-03T08:46:23.966Z,99508.80
2018-08-03T08:48:55.674Z,99509.16
2018-08-03T08:51:27.721Z,99489.26
2018-08-03T08:53:56.479Z,99511.52
2018-08-03T08:56:25.264Z,99502.91
2018-08-03T08:58:54.092Z,99496.23
2018-08-03T09:01:22.700Z,99498.53
2018-08-03T09:03:51.141Z,99498.72
2018-08-03T09:06:19.872Z,99499.42
2018-08-03T09:08:49.405Z,99499.19
2018-08-03T09:11:19.217Z,99491.00
2018-08-03T09:13:50.242Z,99487.52
2018-08-03T09:16:19.491Z,99487.60
2018-08-03T09:18:48.677Z,99488.06
2018-08-03T09:21:17.791Z,99481.88
2018-08-03T09:23:49.061Z,99480.57
2018-08-03T09:26:18.908Z,99478.38
2018-08-03T09:28:47.451Z,99477.24
2018-08-03T09:31:16.184Z,99480.44
2018-08-03T09:33:44.753Z,99476.96
2018-08-03T09:36:13.313Z,99478.52
2018-08-03T09:38:42.364Z,99471.31
2018-08-03T09:41:17.715Z,99465.37
2018-08-03T09:43:47.103Z,99468.42
2018-08-03T09:46:15.653Z,99461.20
2018-08-03T09:48:44.386Z,99457.87
2018-08-03T09:51:13.111Z,99454.81
2018-08-03T09:53:42.959Z,99458.23
2018-08-03T09:56:12.189Z,99449.41
2018-08-03T09:58:41.813Z,99462.94
2018-08-03T10:01:10.524Z,99453.19
2018-08-03T10:03:41.531Z,99451.67
2018-08-03T10:06:10.404Z,99459.00
2018-08-03T10:08:39.526Z,99465.61
2018-08-03T10:11:09.562Z,99451.47
2018-08-03T10:13:38.319Z,99450.46
2018-08-03T10:16:06.917Z,99452.72
2018-08-03T10:18:35.791Z,99450.69
2018-08-03T10:21:05.089Z,99452.27
2018-08-03T10:23:35.373Z,99449.34
2018-08-03T10:26:04.759Z,99449.70
2018-08-03T10:28:34.091Z,99453.97
2018-08-03T10:31:02.625Z,99446.56
2018-08-03T10:33:31.385Z,99439.03
2018-08-03T10:36:01.695Z,99437.75
2018-08-03T10:38:31.237Z,99434.89
2018-08-03T10:40:59.869Z,99431.81
2018-08-03T10:43:28.493Z,99429.13
2018-08-03T10:45:57.008Z,99428.00
2018-08-03T10:48:25.761Z,99432.95
2018-08-03T10:50:54.384Z,99428.77
2018-08-03T10:53:23.158Z,99417.13
2018-08-03T10:55:52.538Z,99416.11
2018-08-03T10:58:21.912Z,99416.45
2018-08-03T11:00:50.995Z,99411.91
2018-08-03T11:03:19.880Z,99407.47
2018-08-03T11:05:49.017Z,99403.48
2018-08-03T11:08:18.572Z,99409.89
2018-08-03T11:10:48.947Z,99403.97
2018-08-03T11:13:18.088Z,99403.38
2018-08-03T11:15:47.690Z,99395.80
2018-08-03T11:18:16.894Z,99397.61
2018-08-03T11:20:45.721Z,99388.63
2018-08-03T11:23:14.504Z,99394.50
2018-08-03T11:25:43.243Z,99393.63
2018-08-03T11:28:12.484Z,99386.84
2018-08-03T11:30:42.317Z,99388.76
2018-08-03T11:33:11.450Z,99385.06
2018-08-03T11:35:40.791Z,99384.80
2018-08-03T11:38:09.828Z,99387.69
2018-08-03T11:40:39.074Z,99382.41
2018-08-03T11:43:08.088Z,99382.91
2018-08-03T11:45:37.398Z,99381.30
2018-08-03T11:48:07.113Z,99372.28
2018-08-03T11:50:37.023Z,99374.60
2018-08-03T11:53:06.195Z,99369.07
2018-08-03T11:55:37.664Z,99357.67
2018-08-03T11:58:06.696Z,99360.53
2018-08-03T12:00:36.030Z,99331.52
2018-08-03T12:03:05.713Z,99349.85
2018-08-03T12:05:38.424Z,99345.03
2018-08-03T12:08:08.356Z,99347.88
2018-08-03T12:10:37.285Z,99334.64
2018-08-03T12:13:06.546Z,99348.80
2018-08-03T12:15:35.957Z,99338.67
2018-08-03T12:18:05.245Z,99348.00
2018-08-03T12:20:34.896Z,99343.38
2018-08-03T12:23:04.047Z,99351.69
2018-08-03T12:25:33.702Z,99344.74
2018-08-03T12:28:03.757Z,99346.25
2018-08-03T12:30:32.427Z,99344.73
2018-08-03T12:33:01.399Z,99338.14
2018-08-03T12:35:30.361Z,99331.67
2018-08-03T12:37:59.620Z,99329.75
2018-08-03T12:40:28.678Z,99337.66
2018-08-03T12:42:57.321Z,99336.66
2018-08-03T12:45:33.837Z,99330.23
2018-08-03T12:47:55.145Z,99336.65
2018-08-03T12:50:23.873Z,99324.91
2018-08-03T12:52:52.408Z,99328.63
2018-08-03T12:55:21.071Z,99324.53
2018-08-03T12:57:50.529Z,99318.20
2018-08-03T13:00:19.735Z,99322.55
2018-08-03T13:02:48.419Z,99316.78
2018-08-03T13:05:16.968Z,99321.42
2018-08-03T13:07:47.525Z,99307.03
2018-08-03T13:10:17.223Z,99314.54
2018-08-03T13:12:46.377Z,99311.26
2018-08-03T13:15:14.956Z,99307.41
2018-08-03T13:17:44.474Z,99305.36
2018-08-03T13:20:13.709Z,99306.69
2018-08-03T13:22:42.378Z,99299.00
2018-08-03T13:25:11.342Z,99291.89
2018-08-03T13:27:40.768Z,99298.97
2018-08-03T13:30:09.312Z,99296.58
2018-08-03T13:32:39.068Z,99289.08
2018-08-03T13:35:08.655Z,99285.81
2018-08-03T13:37:37.364Z,99286.33
2018-08-03T13:40:06.141Z,99280.87
2018-08-03T13:42:34.714Z,99281.11
2018-08-03T13:45:03.332Z,99275.21
2018-08-03T13:47:32.743Z,99272.18
2018-08-03T13:50:02.331Z,99268.47
2018-08-03T13:52:31.132Z,99262.36
2018-08-03T13:54:59.794Z,99258.70
2018-08-03T13:57:28.957Z,99249.03
2018-08-03T13:59:59.384Z,99248.22
2018-08-03T14:02:29.067Z,99246.21
2018-08-03T14:04:58.191Z,99246.73
2018-08-03T14:07:27.810Z,99236.73
2018-08-03T14:09:57.439Z,99238.78
2018-08-03T14:12:26.555Z,99241.55
2018-08-03T14:14:55.298Z,99237.71
2018-08-03T14:17:23.861Z,99232.55
2018-08-03T14:19:53.984Z,99229.59
2018-08-03T14:22:22.674Z,99230.60
2018-08-03T14:24:51.755Z,99228.29
2018-08-03T14:27:20.682Z,99228.30
2018-08-03T14:29:50.924Z,99222.63
2018-08-03T14:32:20.638Z,99221.16
2018-08-03T14:34:51.087Z,99227.27
2018-08-03T14:37:19.735Z,99221.20
2018-08-03T14:39:49.242Z,99220.12
2018-08-03T14:42:17.947Z,99223.37
2018-08-03T14:44:47.497Z,99220.88
2018-08-03T14:47:16.144Z,99213.72
2018-08-03T14:49:45.355Z,99215.48
2018-08-03T14:52:13.900Z,99212.96
2018-08-03T14:54:42.721Z,99206.72
2018-08-03T14:57:11.470Z,99213.80
2018-08-03T14:59:41.177Z,99209.05
2018-08-03T15:02:10.433Z,99212.47
2018-08-03T15:04:39.569Z,99208.88
2018-08-03T15:07:08.505Z,99213.26
2018-08-03T15:09:37.407Z,99202.19
2018-08-03T15:12:06.619Z,99200.98
2018-08-03T15:14:35.805Z,99192.19
2018-08-03T15:17:05.196Z,99199.63
2018-08-03T15:19:34.584Z,99195.52
2018-08-03T15:22:03.590Z,99199.00
2018-08-03T15:24:33.084Z,99197.16
2018-08-03T15:27:02.952Z,99193.66
2018-08-03T15:29:32.262Z,99193.98
2018-08-03T15:32:04.923Z,99197.95
2018-08-03T15:34:34.177Z,99188.45
2018-08-03T15:37:03.390Z,99187.42
2018-08-03T15:39:32.620Z,99181.22
2018-08-03T15:42:01.714Z,99186.34
2018-08-03T15:44:30.924Z,99184.22
2018-08-03T15:47:00.749Z,99179.52
2018-08-03T15:49:30.123Z,99176.59
2018-08-03T15:51:59.405Z,99175.55
2018-08-03T15:54:29.024Z,99173.57
2018-08-03T15:56:57.716Z,99169.17
2018-08-03T15:59:26.982Z,99170.19
2018-08-03T16:01:58.674Z,99165.18
2018-08-03T16:04:27.298Z,99167.33
2018-08-03T16:06:56.455Z,99161.46
2018-08-03T16:09:25.748Z,99157.09
2018-08-03T16:11:55.052Z,99162.55
2018-08-03T16:14:24.037Z,99158.05
2018-08-03T16:16:53.309Z,99157.23
2018-08-03T16:19:22.212Z,99150.99
2018-08-03T16:21:51.531Z,99146.83
2018-08-03T16:24:20.666Z,99139.44
2018-08-03T16:26:49.831Z,99133.39
2018-08-03T16:29:18.922Z,99133.84
2018-08-03T16:31:48.174Z,99130.61
2018-08-03T16:34:16.821Z,99130.80
2018-08-03T16:36:45.844Z,99127.64
2018-08-03T16:39:14.675Z,99127.14
2018-08-03T16:41:43.690Z,99124.27
2018-08-03T16:44:12.401Z,99124.98
2018-08-03T16:46:41.161Z,99127.05
2018-08-03T16:49:09.898Z,99129.36
2018-08-03T16:51:38.520Z,99127.77
2018-08-03T16:54:07.123Z,99127.55
2018-08-03T16:56:36.504Z,99127.62
2018-08-03T16:59:05.012Z,99125.91
2018-08-03T17:01:35.665Z,99123.13
2018-08-03T17:04:05.189Z,99129.95
2018-08-03T17:06:34.127Z,99124.20
2018-08-03T17:09:02.789Z,99128.34
2018-08-03T17:11:31.464Z,99123.15
2018-08-03T17:14:00.816Z,99124.79
2018-08-03T17:16:30.555Z,99122.36
2018-08-03T17:18:59.283Z,99122.38
2018-08-03T17:21:28.640Z,99125.42
2018-08-03T17:23:58.364Z,99114.83
2018-08-03T17:26:28.666Z,99115.59
2018-08-03T17:28:57.257Z,99119.29
2018-08-03T17:31:27.437Z,99119.77
2018-08-03T17:33:56.249Z,99119.75
2018-08-03T17:36:25.085Z,99117.39
2018-08-03T17:38:53.878Z,99114.12
2018-08-03T17:41:23.188Z,99117.23
2018-08-03T17:43:52.712Z,99114.22
2018-08-03T17:46:21.937Z,99114.29
2018-08-03T17:48:50.836Z,99112.14
2018-08-03T17:51:20.136Z,99113.88
2018-08-03T17:53:49.198Z,99117.52
2018-08-03T17:56:17.912Z,99115.67
2018-08-03T17:58:46.759Z,99120.09
2018-08-03T18:01:16.066Z,99119.67
2018-08-03T18:03:44.697Z,99110.61
2018-08-03T18:06:13.834Z,99113.42
2018-08-03T18:08:43.015Z,99114.28
2018-08-03T18:11:11.543Z,99119.98
2018-08-03T18:13:40.323Z,99123.53
2018-08-03T18:16:09.616Z,99121.32
2018-08-03T18:18:38.063Z,99126.14
2018-08-03T18:21:07.298Z,99121.91
2018-08-03T18:23:35.931Z,99122.95
2018-08-03T18:26:04.991Z,99127.78
2018-08-03T18:28:34.246Z,99121.48
2018-08-03T18:31:03.158Z,99129.81
2018-08-03T18:33:32.957Z,99128.89
2018-08-03T18:36:02.105Z,99136.84
2018-08-03T18:38:31.214Z,99140.09
2018-08-03T18:41:00.253Z,99139.09
2018-08-03T18:43:29.367Z,99141.61
2018-08-03T18:45:58.057Z,99132.41
2018-08-03T18:48:27.198Z,99132.18
2018-08-03T18:50:56.032Z,99134.30
2018-08-03T18:53:25.216Z,99142.82
2018-08-03T18:55:54.384Z,99141.84
2018-08-03T18:58:23.750Z,99146.55
2018-08-03T19:00:52.855Z,99133.80
2018-08-03T19:03:21.906Z,99149.05
2018-08-03T19:05:51.277Z,99145.84
2018-08-03T19:08:20.461Z,99147.47
2018-08-03T19:10:49.721Z,99150.73
2018-08-03T19:13:18.533Z,99151.91
2018-08-03T19:15:47.395Z,99158.33
2018-08-03T19:18:16.099Z,99152.17
2018-08-03T19:20:44.863Z,99161.66
2018-08-03T19:23:13.653Z,99165.59
2018-08-03T19:25:43.862Z,99167.89
2018-08-03T19:28:12.633Z,99169.56
2018-08-03T19:30:42.280Z,99175.09
2018-08-03T19:33:11.795Z,99175.59
2018-08-03T19:35:41.012Z,99173.92
2018-08-03T19:38:11.842Z,99179.44
2018-08-03T19:40:43.404Z,99177.17
2018-08-03T19:43:13.336Z,99187.08
2018-08-03T19:45:42.424Z,99189.42
2018-08-03T19:48:10.995Z,99189.50
2018-08-03T19:50:39.607Z,99191.62
2018-08-03T19:53:08.839Z,99193.45
2018-08-03T19:55:37.861Z,99194.41
2018-08-03T19:58:06.889Z,99191.77
2018-08-03T20:00:36.037Z,99197.56
2018-08-03T20:03:06.477Z,99200.39
2018-08-03T20:05:35.887Z,99203.63
2018-08-03T20:08:04.681Z,99209.37
2018-08-03T20:10:33.430Z,99209.02
2018-08-03T20:13:02.125Z,99207.04
2018-08-03T20:15:30.812Z,99203.54
2018-08-03T20:17:59.478Z,99200.98
2018-08-03T20:20:28.677Z,99208.54
2018-08-03T20:22:57.345Z,99202.12
2018-08-03T20:25:27.617Z,99203.89
2018-08-03T20:27:56.708Z,99206.20
2018-08-03T20:30:25.745Z,99214.20
2018-08-03T20:32:55.206Z,99214.14
2018-08-03T20:35:23.900Z,99213.26
2018-08-03T20:37:52.674Z,99213.91
2018-08-03T20:40:21.337Z,99214.94
2018-08-03T20:42:52.415Z,99214.32
2018-08-03T20:45:21.644Z,99214.87
2018-08-03T20:47:50.135Z,99209.62
2018-08-03T20:50:19.059Z,99215.53
2018-08-03T20:52:48.385Z,99218.98
2018-08-03T20:55:17.595Z,99214.36
2018-08-03T20:57:47.702Z,99218.28
2018-08-03T21:00:16.352Z,99218.50
2018-08-03T21:02:45.774Z,99218.67
2018-08-03T21:05:14.588Z,99209.30
2018-08-03T21:07:43.259Z,99213.37
2018-08-03T21:10:12.784Z,99211.55
2018-08-03T21:12:41.247Z,99215.41
2018-08-03T21:15:10.526Z,99224.67
2018-08-03T21:17:39.349Z,99223.73
2018-08-03T21:20:08.692Z,99218.42
2018-08-03T21:22:37.340Z,99221.58
2018-08-03T21:25:06.793Z,99216.66
2018-08-03T21:27:36.781Z,99221.41
2018-08-03T21:30:07.866Z,99221.54
2018-08-03T21:32:38.346Z,99216.14
2018-08-03T21:35:08.979Z,99216.09
2018-08-03T21:37:38.412Z,99217.71
2018-08-03T21:40:07.659Z,99217.77
2018-08-03T21:42:37.390Z,99218.23
2018-08-03T21:45:06.453Z,99213.52
2018-08-03T21:47:36.317Z,99216.29
2018-08-03T21:50:06.335Z,99218.88
2018-08-03T21:52:35.173Z,99218.97
2018-08-03T21:55:04.512Z,99215.77
2018-08-03T21:57:34.104Z,99217.25
2018-08-03T22:00:03.227Z,99207.38
2018-08-03T22:02:33.216Z,99212.67
2018-08-03T22:05:02.583Z,99218.61
2018-08-03T22:07:31.447Z,99211.25
2018-08-03T22:10:00.285Z,99206.31
2018-08-03T22:12:29.774Z,99212.12
2018-08-03T22:14:58.795Z,99211.13
2018-08-03T22:17:28.253Z,99208.34
2018-08-03T22:20:02.329Z,99214.14
2018-08-03T22:22:34.977Z,99208.74
2018-08-03T22:25:05.413Z,99208.74
2018-08-03T22:27:34.331Z,99208.05
2018-08-03T22:30:04.703Z,99206.05
2018-08-03T22:32:33.721Z,99212.97
2018-08-03T22:35:02.904Z,99210.77
2018-08-03T22:37:32.119Z,99209.12
2018-08-03T22:40:02.054Z,99208.53
2018-08-03T22:42:31.373Z,99204.91
2018-08-03T22:45:01.178Z,99206.22
2018-08-03T22:47:30.691Z,99209.78
2018-08-03T22:49:59.551Z,99209.54
2018-08-03T22:52:28.200Z,99203.22
2018-08-03T22:54:57.096Z,99207.86
2018-08-03T22:57:26.092Z,99204.73
2018-08-03T22:59:55.681Z,99202.22
2018-08-03T23:02:24.699Z,99205.97
2018-08-03T23:04:53.396Z,99204.50
2018-08-03T23:07:22.141Z,99204.10
2018-08-03T23:09:50.875Z,99206.91
2018-08-03T23:12:19.681Z,99202.77
2018-08-03T23:14:48.456Z,99202.27
2018-08-03T23:17:18.018Z,99205.44
2018-08-03T23:19:47.091Z,99200.77
2018-08-03T23:22:15.823Z,99198.06
2018-08-03T23:24:44.501Z,99197.12
2018-08-03T23:27:13.849Z,99193.59
2018-08-03T23:29:43.309Z,99195.26
2018-08-03T23:32:14.270Z,99198.17
2018-08-03T23:34:43.428Z,99191.84
2018-08-03T23:37:13.354Z,99195.86
2018-08-03T23:39:42.275Z,99194.86
2018-08-03T23:42:12.055Z,99198.06
2018-08-03T23:44:41.435Z,99193.60
2018-08-03T23:47:10.696Z,99187.34
2018-08-03T23:49:40.184Z,99184.04
2018-08-03T23:52:09.830Z,99189.23
2018-08-03T23:54:39.171Z,99184.97
2018-08-03T23:57:08.919Z,99183.08
2018-08-03T23:59:38.345Z,99176.13
